createdAt,value
2019-04-06T00:02:23.631Z,267.03
2019-04-06T00:04:54.293Z,249.73
2019-04-06T00:07:24.904Z,240.40
2019-04-06T00:09:55.704Z,256.77
2019-04-06T00:12:26.933Z,239.57
2019-04-06T00:14:58.182Z,231.60
2019-04-06T00:17:29.008Z,238.43
2019-04-06T00:20:00.090Z,262.90
2019-04-06T00:22:33.288Z,274.17
2019-04-06T00:25:03.904Z,236.07
2019-04-06T00:27:37.814Z,260.63
2019-04-06T00:30:09.231Z,239.73
2019-04-06T00:32:47.542Z,254.77
2019-04-06T00:35:18.070Z,249.07
2019-04-06T00:37:49.218Z,255.97
2019-04-06T00:40:19.886Z,237.13
2019-04-06T00:42:50.788Z,237.97
2019-04-06T00:45:21.898Z,248.30
2019-04-06T00:47:52.903Z,239.07
2019-04-06T00:50:24.961Z,244.30
2019-04-06T00:52:56.543Z,256.13
2019-04-06T00:55:28.673Z,249.90
2019-04-06T00:57:59.280Z,274.77
2019-04-06T01:00:30.513Z,269.23
2019-04-06T01:03:01.432Z,275.87
2019-04-06T01:05:31.980Z,271.07
2019-04-06T01:08:02.899Z,280.03
2019-04-06T01:10:34.857Z,280.87
2019-04-06T01:13:14.464Z,303.23
2019-04-06T01:15:45.177Z,282.40
2019-04-06T01:18:15.796Z,292.80
2019-04-06T01:20:47.638Z,304.40
2019-04-06T01:23:18.929Z,281.53
2019-04-06T01:25:50.215Z,299.03
2019-04-06T01:28:21.129Z,292.13
2019-04-06T01:30:52.169Z,304.50
2019-04-06T01:33:22.814Z,274.33
2019-04-06T01:35:53.527Z,291.77
2019-04-06T01:38:24.357Z,257.43
2019-04-06T01:40:55.387Z,289.83
2019-04-06T01:43:26.733Z,293.33
2019-04-06T01:45:57.659Z,285.07
2019-04-06T01:48:28.648Z,276.87
2019-04-06T01:51:02.258Z,297.20
2019-04-06T01:53:33.504Z,291.07
2019-04-06T01:56:04.255Z,276.27
2019-04-06T01:58:35.188Z,280.20
2019-04-06T02:01:30.716Z,255.70
2019-04-06T02:04:01.781Z,277.60
2019-04-06T02:06:32.613Z,267.77
2019-04-06T02:09:04.879Z,264.63
2019-04-06T02:11:36.161Z,283.03
2019-04-06T02:14:07.371Z,276.03
2019-04-06T02:16:38.164Z,274.13
2019-04-06T02:19:09.393Z,296.17
2019-04-06T02:21:40.387Z,311.73
2019-04-06T02:24:11.329Z,278.60
2019-04-06T02:26:44.986Z,277.60
2019-04-06T02:29:15.903Z,261.77
2019-04-06T02:32:04.664Z,269.20
2019-04-06T02:34:44.200Z,289.60
2019-04-06T02:37:32.141Z,264.53
2019-04-06T02:40:22.500Z,275.13
2019-04-06T02:42:58.209Z,271.30
2019-04-06T02:45:28.760Z,282.93
2019-04-06T02:47:59.876Z,273.30
2019-04-06T02:50:31.276Z,278.27
2019-04-06T02:53:02.326Z,250.80
2019-04-06T02:55:33.601Z,273.03
2019-04-06T02:58:04.211Z,278.00
2019-04-06T03:00:35.305Z,282.90
2019-04-06T03:03:06.591Z,264.43
2019-04-06T03:05:37.780Z,262.07
2019-04-06T03:08:08.725Z,273.87
2019-04-06T03:10:39.279Z,250.30
2019-04-06T03:13:10.472Z,278.13
2019-04-06T03:15:41.513Z,270.93
2019-04-06T03:18:12.303Z,265.63
2019-04-06T03:20:42.889Z,266.43
2019-04-06T03:23:13.550Z,269.83
2019-04-06T03:25:44.187Z,265.57
2019-04-06T03:28:14.904Z,243.87
2019-04-06T03:30:45.819Z,249.57
2019-04-06T03:33:16.828Z,245.20
2019-04-06T03:35:50.003Z,231.20
2019-04-06T03:38:21.895Z,215.70
2019-04-06T03:40:52.741Z,234.63
2019-04-06T03:43:23.473Z,231.53
2019-04-06T03:45:55.534Z,232.43
2019-04-06T03:48:26.140Z,223.27
2019-04-06T03:50:57.056Z,220.33
2019-04-06T03:53:27.553Z,236.10
2019-04-06T03:55:58.684Z,257.17
2019-04-06T03:58:30.201Z,243.57
2019-04-06T04:01:02.236Z,225.70
2019-04-06T04:03:33.049Z,225.30
2019-04-06T04:06:03.663Z,245.07
2019-04-06T04:08:39.841Z,229.53
2019-04-06T04:11:10.889Z,231.93
2019-04-06T04:13:41.835Z,241.53
2019-04-06T04:16:12.520Z,235.00
2019-04-06T04:18:43.029Z,233.00
2019-04-06T04:21:13.929Z,235.97
2019-04-06T04:23:45.120Z,232.60
2019-04-06T04:26:15.844Z,229.20
2019-04-06T04:28:46.831Z,228.97
2019-04-06T04:31:17.615Z,221.20
2019-04-06T04:33:48.424Z,218.47
2019-04-06T04:36:19.455Z,223.20
2019-04-06T04:38:50.384Z,215.50
2019-04-06T04:41:20.927Z,219.20
2019-04-06T04:43:57.597Z,215.50
2019-04-06T04:46:28.446Z,222.47
2019-04-06T04:48:59.571Z,212.00
2019-04-06T04:51:30.297Z,197.40
2019-04-06T04:54:01.325Z,223.70
2019-04-06T04:56:32.416Z,196.77
2019-04-06T04:59:03.666Z,206.10
2019-04-06T05:01:37.396Z,207.67
2019-04-06T05:04:08.116Z,208.77
2019-04-06T05:06:39.059Z,211.63
2019-04-06T05:09:10.024Z,201.70
2019-04-06T05:11:40.914Z,210.57
2019-04-06T05:14:47.537Z,195.57
2019-04-06T05:17:18.956Z,197.33
2019-04-06T05:19:49.637Z,189.63
2019-04-06T05:22:20.364Z,186.93
2019-04-06T05:24:51.477Z,184.63
2019-04-06T05:27:22.756Z,198.57
2019-04-06T05:29:53.999Z,194.00
2019-04-06T05:32:25.210Z,195.83
2019-04-06T05:34:58.038Z,189.70
2019-04-06T05:37:28.441Z,190.17
2019-04-06T05:39:59.290Z,198.03
2019-04-06T05:42:30.451Z,193.47
2019-04-06T05:45:02.135Z,183.87
2019-04-06T05:47:33.321Z,177.37
2019-04-06T05:50:04.785Z,185.97
2019-04-06T05:52:36.350Z,175.00
2019-04-06T05:55:07.920Z,171.83
2019-04-06T05:57:38.958Z,176.83
2019-04-06T06:00:11.131Z,174.00
2019-04-06T06:02:42.664Z,177.13
2019-04-06T06:05:13.944Z,172.83
2019-04-06T06:07:44.704Z,171.13
2019-04-06T06:10:15.598Z,182.87
2019-04-06T06:12:46.625Z,173.50
2019-04-06T06:15:20.671Z,156.03
2019-04-06T06:17:52.068Z,168.63
2019-04-06T06:20:23.124Z,155.40
2019-04-06T06:22:54.299Z,158.87
2019-04-06T06:25:25.389Z,157.40
2019-04-06T06:27:56.429Z,147.33
2019-04-06T06:30:28.341Z,146.20
2019-04-06T06:32:59.239Z,141.30
2019-04-06T06:35:29.879Z,132.67
2019-04-06T06:38:00.524Z,142.90
2019-04-06T06:40:31.285Z,133.93
2019-04-06T06:43:03.349Z,134.33
2019-04-06T06:45:34.509Z,141.07
2019-04-06T06:48:06.230Z,132.30
2019-04-06T06:50:36.881Z,131.97
2019-04-06T06:53:07.479Z,139.13
2019-04-06T06:55:38.089Z,133.53
2019-04-06T06:58:09.285Z,130.23
2019-04-06T07:00:41.820Z,135.33
2019-04-06T07:03:19.489Z,131.47
2019-04-06T07:05:50.138Z,131.90
2019-04-06T07:08:28.937Z,128.07
2019-04-06T07:11:00.341Z,123.33
2019-04-06T07:13:31.330Z,135.90
2019-04-06T07:16:02.149Z,129.93
2019-04-06T07:18:34.059Z,135.57
2019-04-06T07:21:06.920Z,135.90
2019-04-06T07:23:37.928Z,140.80
2019-04-06T07:26:10.674Z,135.37
2019-04-06T07:28:42.521Z,130.53
2019-04-06T07:31:13.729Z,140.33
2019-04-06T07:33:46.272Z,139.90
2019-04-06T07:36:17.981Z,132.23
2019-04-06T07:38:51.127Z,136.90
2019-04-06T07:41:21.926Z,138.47
2019-04-06T07:43:52.690Z,132.83
2019-04-06T07:46:26.489Z,126.57
2019-04-06T07:49:07.837Z,133.73
2019-04-06T07:51:30.521Z,132.90
2019-04-06T07:54:03.623Z,128.93
2019-04-06T07:56:35.170Z,131.50
2019-04-06T07:59:06.943Z,130.57
2019-04-06T08:01:39.298Z,136.97
2019-04-06T08:04:10.870Z,140.97
2019-04-06T08:06:44.997Z,129.10
2019-04-06T08:09:16.035Z,128.43
2019-04-06T08:11:49.484Z,139.13
2019-04-06T08:14:20.321Z,136.67
2019-04-06T08:16:51.473Z,127.33
2019-04-06T08:19:23.235Z,140.03
2019-04-06T08:21:54.771Z,131.30
2019-04-06T08:24:26.626Z,122.83
2019-04-06T08:26:59.690Z,130.97
2019-04-06T08:29:31.159Z,135.00
2019-04-06T08:32:03.731Z,131.47
2019-04-06T08:34:35.546Z,131.40
2019-04-06T08:37:06.711Z,131.50
2019-04-06T08:40:00.941Z,134.50
2019-04-06T08:42:32.625Z,120.03
2019-04-06T08:45:04.163Z,112.83
2019-04-06T08:47:35.961Z,126.57
2019-04-06T08:50:07.857Z,117.43
2019-04-06T08:52:40.347Z,120.57
2019-04-06T08:55:14.325Z,117.73
2019-04-06T08:57:45.310Z,113.80
2019-04-06T09:00:26.271Z,119.87
2019-04-06T09:02:57.839Z,111.23
2019-04-06T09:05:31.158Z,110.20
2019-04-06T09:08:02.260Z,112.03
2019-04-06T09:10:33.697Z,113.27
2019-04-06T09:13:04.892Z,127.50
2019-04-06T09:15:40.886Z,116.40
2019-04-06T09:18:13.017Z,113.83
2019-04-06T09:20:46.645Z,104.97
2019-04-06T09:23:19.137Z,113.70
2019-04-06T09:25:50.335Z,114.40
2019-04-06T09:28:32.478Z,113.53
2019-04-06T09:31:03.003Z,113.90
2019-04-06T09:36:51.661Z,114.13
2019-04-06T09:43:10.941Z,110.40
2019-04-06T09:45:57.384Z,115.03
2019-04-06T09:49:01.030Z,110.60
2019-04-06T09:51:47.294Z,102.83
2019-04-06T09:54:39.936Z,108.73
2019-04-06T09:57:45.286Z,112.87
2019-04-06T10:00:42.418Z,113.60
2019-04-06T10:03:46.951Z,103.80
2019-04-06T10:06:45.231Z,108.07
2019-04-06T10:09:52.868Z,99.33
2019-04-06T10:12:53.880Z,99.63
2019-04-06T10:15:33.875Z,95.50
2019-04-06T10:18:30.423Z,100.90
2019-04-06T10:21:21.001Z,102.13
2019-04-06T10:24:21.442Z,107.63
2019-04-06T10:27:10.205Z,114.27
2019-04-06T10:30:03.556Z,110.97
2019-04-06T10:33:03.175Z,102.23
2019-04-06T10:35:51.792Z,105.20
2019-04-06T10:38:49.697Z,103.77
2019-04-06T10:41:49.755Z,105.73
2019-04-06T10:47:00.016Z,103.45
2019-04-06T10:49:40.583Z,97.87
2019-04-06T10:52:30.046Z,98.90
2019-04-06T10:55:30.921Z,99.33
2019-04-06T10:58:15.572Z,105.20
2019-04-06T11:01:07.892Z,96.60
2019-04-06T11:04:16.292Z,98.93
2019-04-06T11:07:00.151Z,96.03
2019-04-06T11:09:57.717Z,94.77
2019-04-06T11:13:02.936Z,88.80
2019-04-06T11:15:44.262Z,105.60
2019-04-06T11:18:32.948Z,98.47
2019-04-06T11:21:46.570Z,86.83
2019-04-06T11:24:35.371Z,89.07
2019-04-06T11:27:24.747Z,91.87
2019-04-06T11:30:28.004Z,91.77
2019-04-06T11:33:17.946Z,81.57
2019-04-06T11:36:17.505Z,86.73
2019-04-06T11:39:20.061Z,84.20
2019-04-06T11:42:11.136Z,74.67
2019-04-06T11:45:21.981Z,84.13
2019-04-06T11:48:18.865Z,80.00
2019-04-06T11:51:14.855Z,82.07
2019-04-06T11:54:13.687Z,82.77
2019-04-06T11:57:05.993Z,74.73
2019-04-06T11:59:50.823Z,81.27
2019-04-06T12:02:25.905Z,77.40
2019-04-06T12:05:23.213Z,77.03
2019-04-06T12:08:17.850Z,75.73
2019-04-06T12:11:19.782Z,77.50
2019-04-06T12:14:06.773Z,76.87
2019-04-06T12:17:00.252Z,73.17
2019-04-06T12:19:55.197Z,73.60
2019-04-06T12:22:51.063Z,67.60
2019-04-06T12:25:39.221Z,70.87
2019-04-06T12:28:36.390Z,70.37
2019-04-06T12:31:47.644Z,73.27
2019-04-06T12:34:41.896Z,67.10
2019-04-06T12:37:47.816Z,59.17
2019-04-06T12:40:34.142Z,64.93
2019-04-06T12:43:22.136Z,57.17
2019-04-06T12:46:15.741Z,58.77
2019-04-06T12:52:28.463Z,57.70
2019-04-06T12:55:08.909Z,58.63
2019-04-06T12:57:57.366Z,64.37
2019-04-06T13:00:52.144Z,52.07
2019-04-06T13:03:36.765Z,59.63
2019-04-06T13:06:30.025Z,49.53
2019-04-06T13:09:38.876Z,45.93
2019-04-06T13:12:29.523Z,47.93
2019-04-06T13:15:29.551Z,45.50
2019-04-06T13:18:19.451Z,43.03
2019-04-06T13:21:12.022Z,41.37
2019-04-06T13:24:15.859Z,45.90
2019-04-06T13:27:17.960Z,44.27
2019-04-06T13:30:08.313Z,37.10
2019-04-06T13:33:01.987Z,41.90
2019-04-06T13:35:58.883Z,38.17
2019-04-06T13:38:52.465Z,34.37
2019-04-06T13:41:48.686Z,42.70
2019-04-06T13:44:42.691Z,38.57
2019-04-06T13:47:47.945Z,34.63
2019-04-06T13:50:25.199Z,32.13
2019-04-06T13:53:11.185Z,30.47
2019-04-06T13:55:59.733Z,30.30
2019-04-06T13:58:36.796Z,28.67
2019-04-06T14:01:55.970Z,29.73
2019-04-06T14:04:45.317Z,26.77
2019-04-06T14:07:39.613Z,29.60
2019-04-06T14:10:40.506Z,25.97
2019-04-06T14:13:28.793Z,27.87
2019-04-06T14:16:26.621Z,26.13
2019-04-06T14:19:22.777Z,29.37
2019-04-06T14:22:18.517Z,28.70
2019-04-06T14:25:17.263Z,29.57
2019-04-06T14:28:09.385Z,30.73
2019-04-06T14:31:00.229Z,40.87
2019-04-06T14:33:53.589Z,40.10
2019-04-06T14:36:49.086Z,42.77
2019-04-06T14:40:10.507Z,40.47
2019-04-06T14:43:10.297Z,38.53
2019-04-06T14:46:05.852Z,36.30
2019-04-06T14:48:55.538Z,37.97
2019-04-06T14:51:39.177Z,39.87
2019-04-06T14:54:16.987Z,40.00
2019-04-06T14:57:38.556Z,41.37
2019-04-06T15:00:19.377Z,38.93
2019-04-06T15:03:00.492Z,28.73
2019-04-06T15:05:42.950Z,24.57
2019-04-06T15:08:34.437Z,24.97
2019-04-06T15:11:17.164Z,24.83
2019-04-06T15:14:09.666Z,28.43
2019-04-06T15:16:59.722Z,21.23
2019-04-06T15:19:58.436Z,36.17
2019-04-06T15:22:53.348Z,42.53
2019-04-06T15:25:38.433Z,46.23
2019-04-06T15:28:31.396Z,41.10
2019-04-06T15:31:10.062Z,46.13
2019-04-06T15:34:01.111Z,44.80
2019-04-06T15:36:45.332Z,43.43
2019-04-06T15:39:47.837Z,35.07
2019-04-06T15:42:36.381Z,42.03
2019-04-06T15:45:25.555Z,47.07
2019-04-06T15:48:15.031Z,43.03
2019-04-06T15:51:06.262Z,44.07
2019-04-06T15:53:56.098Z,43.73
2019-04-06T15:56:52.194Z,39.67
2019-04-06T15:59:49.342Z,41.07
2019-04-06T16:02:40.217Z,40.83
2019-04-06T16:05:29.119Z,46.90
2019-04-06T16:08:23.289Z,42.17
2019-04-06T16:11:28.772Z,37.90
2019-04-06T16:14:24.846Z,33.77
2019-04-06T16:17:09.483Z,34.47
2019-04-06T16:20:06.593Z,33.57
2019-04-06T16:22:57.827Z,33.03
2019-04-06T16:25:48.343Z,44.93
2019-04-06T16:28:43.273Z,45.97
2019-04-06T16:31:50.527Z,39.93
2019-04-06T16:34:56.472Z,46.47
2019-04-06T16:37:46.955Z,41.93
2019-04-06T16:40:56.272Z,43.20
2019-04-06T16:44:03.906Z,49.10
2019-04-06T16:46:50.567Z,45.10
2019-04-06T16:49:32.757Z,41.57
2019-04-06T16:52:34.115Z,47.33
2019-04-06T16:55:20.489Z,53.13
2019-04-06T16:58:26.424Z,50.67
2019-04-06T17:01:20.971Z,47.67
2019-04-06T17:04:22.229Z,50.37
2019-04-06T17:07:09.192Z,53.63
2019-04-06T17:10:06.502Z,45.53
2019-04-06T17:12:58.963Z,49.83
2019-04-06T17:15:48.114Z,41.17
2019-04-06T17:18:30.657Z,47.30
2019-04-06T17:21:32.218Z,54.13
2019-04-06T17:24:16.158Z,49.17
2019-04-06T17:27:07.256Z,51.47
2019-04-06T17:29:56.875Z,42.37
2019-04-06T17:32:38.311Z,43.60
2019-04-06T17:35:20.061Z,47.63
2019-04-06T17:38:02.576Z,44.57
2019-04-06T17:40:48.580Z,42.53
2019-04-06T17:43:41.703Z,40.80
2019-04-06T17:46:32.581Z,39.87
2019-04-06T17:49:26.328Z,42.17
2019-04-06T17:52:38.464Z,46.90
2019-04-06T17:55:39.163Z,44.77
2019-04-06T17:58:42.214Z,47.77
2019-04-06T18:01:51.064Z,47.77
2019-04-06T18:04:42.469Z,44.30
2019-04-06T18:07:34.898Z,52.40
2019-04-06T18:10:41.801Z,51.00
2019-04-06T18:13:42.422Z,50.80
2019-04-06T18:16:18.575Z,49.20
2019-04-06T18:18:52.133Z,50.03
2019-04-06T18:21:26.319Z,53.20
2019-04-06T18:24:00.972Z,49.33
2019-04-06T18:26:33.143Z,52.13
2019-04-06T18:29:05.001Z,53.70
2019-04-06T18:32:05.480Z,56.00
2019-04-06T18:34:46.935Z,55.73
2019-04-06T18:37:37.105Z,51.70
2019-04-06T18:40:30.552Z,54.63
2019-04-06T18:43:04.147Z,53.80
2019-04-06T18:45:41.492Z,56.20
2019-04-06T18:48:16.204Z,52.43
2019-04-06T18:50:47.753Z,57.83
2019-04-06T18:53:19.473Z,59.10
2019-04-06T18:55:51.115Z,54.20
2019-04-06T18:58:22.997Z,49.73
2019-04-06T19:00:55.143Z,56.53
2019-04-06T19:03:26.823Z,62.57
2019-04-06T19:05:58.263Z,65.63
2019-04-06T19:08:31.539Z,61.33
2019-04-06T19:11:07.333Z,69.97
2019-04-06T19:13:40.777Z,63.23
2019-04-06T19:16:13.239Z,68.17
2019-04-06T19:18:44.903Z,62.33
2019-04-06T19:21:18.608Z,64.25
2019-04-06T19:23:50.717Z,61.37
2019-04-06T19:26:28.784Z,73.93
2019-04-06T19:29:02.015Z,67.63
2019-04-06T19:31:44.356Z,69.17
2019-04-06T19:34:30.405Z,69.10
2019-04-06T19:37:03.005Z,66.10
2019-04-06T19:39:34.538Z,70.23
2019-04-06T19:42:14.554Z,73.37
2019-04-06T19:44:46.321Z,79.73
2019-04-06T19:47:18.895Z,77.20
2019-04-06T19:49:50.388Z,86.67
2019-04-06T19:52:23.244Z,69.80
2019-04-06T19:54:55.010Z,75.83
2019-04-06T19:57:26.057Z,75.10
2019-04-06T19:59:57.865Z,71.37
2019-04-06T20:02:38.492Z,73.27
2019-04-06T20:05:10.910Z,72.93
2019-04-06T20:07:42.398Z,70.33
2019-04-06T20:10:14.014Z,62.90
2019-04-06T20:12:52.323Z,67.33
2019-04-06T20:15:24.468Z,71.73
2019-04-06T20:17:59.110Z,64.73
2019-04-06T20:20:30.284Z,62.60
2019-04-06T20:23:06.263Z,69.30
2019-04-06T20:25:38.739Z,71.03
2019-04-06T20:28:14.309Z,87.03
2019-04-06T20:30:45.850Z,71.50
2019-04-06T20:33:19.613Z,72.43
2019-04-06T20:35:50.818Z,70.07
2019-04-06T20:38:22.120Z,73.57
2019-04-06T20:40:53.992Z,70.83
2019-04-06T20:43:25.349Z,68.23
2019-04-06T20:46:00.913Z,82.20
2019-04-06T20:48:33.884Z,66.47
2019-04-06T20:51:05.346Z,71.73
2019-04-06T20:53:37.612Z,75.00
2019-04-06T20:56:21.154Z,74.20
2019-04-06T20:58:57.488Z,74.53
2019-04-06T21:01:28.870Z,68.90
2019-04-06T21:04:02.798Z,74.93
2019-04-06T21:06:36.208Z,69.77
2019-04-06T21:09:16.633Z,73.00
2019-04-06T21:11:48.013Z,65.37
2019-04-06T21:14:21.572Z,85.80
2019-04-06T21:16:53.411Z,66.80
2019-04-06T21:19:24.832Z,73.73
2019-04-06T21:21:59.730Z,78.30
2019-04-06T21:24:37.730Z,76.07
2019-04-06T21:27:15.092Z,81.87
2019-04-06T21:30:08.314Z,78.23
2019-04-06T21:32:47.848Z,86.33
2019-04-06T21:35:26.943Z,76.63
2019-04-06T21:38:04.591Z,76.83
2019-04-06T21:40:42.509Z,72.83
2019-04-06T21:43:27.782Z,72.40
2019-04-06T21:46:13.410Z,73.50
2019-04-06T21:48:47.230Z,76.90
2019-04-06T21:51:23.328Z,68.33
2019-04-06T21:53:56.310Z,65.60
2019-04-06T21:56:29.285Z,72.43
2019-04-06T21:59:02.735Z,67.40
2019-04-06T22:01:38.734Z,73.20
2019-04-06T22:04:22.626Z,71.90
2019-04-06T22:06:46.057Z,70.57
2019-04-06T22:09:28.938Z,69.67
2019-04-06T22:12:03.315Z,70.97
2019-04-06T22:14:47.351Z,75.43
2019-04-06T22:17:42.144Z,77.27
2019-04-06T22:20:19.736Z,77.33
2019-04-06T22:22:51.696Z,76.40
2019-04-06T22:25:30.600Z,68.03
2019-04-06T22:28:11.635Z,75.40
2019-04-06T22:30:43.942Z,79.27
2019-04-06T22:33:22.420Z,69.83
2019-04-06T22:35:57.276Z,79.90
2019-04-06T22:38:34.167Z,74.27
2019-04-06T22:41:07.889Z,78.17
2019-04-06T22:43:52.380Z,71.80
2019-04-06T22:46:33.917Z,84.40
2019-04-06T22:49:08.064Z,74.70
2019-04-06T22:51:40.591Z,74.33
2019-04-06T22:54:14.964Z,75.83
2019-04-06T22:56:46.159Z,77.10
2019-04-06T22:59:21.186Z,70.40
2019-04-06T23:01:59.757Z,76.20
2019-04-06T23:04:50.967Z,73.23
2019-04-06T23:07:24.559Z,76.57
2019-04-06T23:09:58.707Z,94.47
2019-04-06T23:12:38.310Z,83.03
2019-04-06T23:15:23.268Z,78.20
2019-04-06T23:18:03.790Z,85.37
2019-04-06T23:20:44.779Z,77.43
2019-04-06T23:23:27.855Z,83.60
2019-04-06T23:26:08.197Z,75.40
2019-04-06T23:28:59.610Z,87.67
2019-04-06T23:31:37.296Z,83.97
2019-04-06T23:34:10.156Z,77.87
2019-04-06T23:36:42.037Z,76.43
2019-04-06T23:39:13.584Z,70.37
2019-04-06T23:41:50.674Z,70.27
2019-04-06T23:44:25.121Z,67.40
2019-04-06T23:46:56.496Z,74.10
2019-04-06T23:49:32.754Z,69.80
2019-04-06T23:52:03.906Z,76.17
2019-04-06T23:54:35.150Z,69.70
2019-04-06T23:57:07.603Z,69.90
2019-04-06T23:59:38.599Z,68.27
